sensor_id;sensor_type;location;lat;lon;timestamp;temperature;humidity
73322;DHT22;61549;37.044;22.128;2023-03-31T00:01:37;16.70;42.90
73322;DHT22;61549;37.044;22.128;2023-03-31T00:04:09;16.70;42.80
73322;DHT22;61549;37.044;22.128;2023-03-31T00:06:38;16.70;42.80
73322;DHT22;61549;37.044;22.128;2023-03-31T00:09:12;16.80;42.80
73322;DHT22;61549;37.044;22.128;2023-03-31T00:11:39;16.70;42.90
73322;DHT22;61549;37.044;22.128;2023-03-31T00:14:05;16.70;42.80
73322;DHT22;61549;37.044;22.128;2023-03-31T00:16:35;16.70;42.70
73322;DHT22;61549;37.044;22.128;2023-03-31T00:19:01;16.70;42.60
73322;DHT22;61549;37.044;22.128;2023-03-31T00:21:27;16.70;42.50
73322;DHT22;61549;37.044;22.128;2023-03-31T00:24:03;16.70;42.30
73322;DHT22;61549;37.044;22.128;2023-03-31T00:26:30;16.80;42.50
73322;DHT22;61549;37.044;22.128;2023-03-31T00:28:59;16.80;42.70
73322;DHT22;61549;37.044;22.128;2023-03-31T00:31:26;16.80;43.60
73322;DHT22;61549;37.044;22.128;2023-03-31T00:33:53;16.80;43.00
73322;DHT22;61549;37.044;22.128;2023-03-31T00:36:19;16.80;44.50
73322;DHT22;61549;37.044;22.128;2023-03-31T00:39:03;16.70;43.70
73322;DHT22;61549;37.044;22.128;2023-03-31T00:41:32;16.70;44.00
73322;DHT22;61549;37.044;22.128;2023-03-31T00:44:05;16.60;43.70
73322;DHT22;61549;37.044;22.128;2023-03-31T00:46:36;16.60;43.60
73322;DHT22;61549;37.044;22.128;2023-03-31T00:49:03;16.60;44.50
73322;DHT22;61549;37.044;22.128;2023-03-31T00:51:31;16.50;42.30
73322;DHT22;61549;37.044;22.128;2023-03-31T00:54:04;16.40;42.40
73322;DHT22;61549;37.044;22.128;2023-03-31T00:56:36;16.40;42.70
73322;DHT22;61549;37.044;22.128;2023-03-31T00:59:08;16.30;42.20
73322;DHT22;61549;37.044;22.128;2023-03-31T01:01:35;16.20;41.70
73322;DHT22;61549;37.044;22.128;2023-03-31T01:04:05;16.20;41.70
73322;DHT22;61549;37.044;22.128;2023-03-31T01:06:36;16.20;41.90
73322;DHT22;61549;37.044;22.128;2023-03-31T01:09:05;16.30;42.20
73322;DHT22;61549;37.044;22.128;2023-03-31T01:11:32;16.40;42.50
73322;DHT22;61549;37.044;22.128;2023-03-31T01:13:59;16.40;42.40
73322;DHT22;61549;37.044;22.128;2023-03-31T01:16:25;16.40;42.90
73322;DHT22;61549;37.044;22.128;2023-03-31T01:18:51;16.40;44.30
73322;DHT22;61549;37.044;22.128;2023-03-31T01:24:30;16.30;45.70
73322;DHT22;61549;37.044;22.128;2023-03-31T01:49:38;15.70;48.70
73322;DHT22;61549;37.044;22.128;2023-03-31T01:57:48;15.60;49.10
73322;DHT22;61549;37.044;22.128;2023-03-31T02:00:27;15.50;49.00
73322;DHT22;61549;37.044;22.128;2023-03-31T02:03:05;15.50;48.90
73322;DHT22;61549;37.044;22.128;2023-03-31T02:05:40;15.50;48.20
73322;DHT22;61549;37.044;22.128;2023-03-31T02:08:15;15.40;48.00
73322;DHT22;61549;37.044;22.128;2023-03-31T02:10:43;15.40;48.00
73322;DHT22;61549;37.044;22.128;2023-03-31T02:13:12;15.40;48.30
73322;DHT22;61549;37.044;22.128;2023-03-31T02:15:43;15.40;47.90
73322;DHT22;61549;37.044;22.128;2023-03-31T02:18:19;15.30;47.70
73322;DHT22;61549;37.044;22.128;2023-03-31T02:20:48;15.30;46.40
73322;DHT22;61549;37.044;22.128;2023-03-31T02:23:19;15.20;46.10
73322;DHT22;61549;37.044;22.128;2023-03-31T02:25:50;15.20;45.50
73322;DHT22;61549;37.044;22.128;2023-03-31T02:28:23;15.20;45.30
73322;DHT22;61549;37.044;22.128;2023-03-31T02:33:27;15.20;44.40
73322;DHT22;61549;37.044;22.128;2023-03-31T02:35:53;15.20;43.70
73322;DHT22;61549;37.044;22.128;2023-03-31T02:38:19;15.30;44.30
73322;DHT22;61549;37.044;22.128;2023-03-31T02:40:45;15.30;44.80
73322;DHT22;61549;37.044;22.128;2023-03-31T02:43:11;15.30;44.90
73322;DHT22;61549;37.044;22.128;2023-03-31T02:45:48;15.20;44.50
73322;DHT22;61549;37.044;22.128;2023-03-31T02:48:33;15.10;45.40
73322;DHT22;61549;37.044;22.128;2023-03-31T02:51:13;15.10;44.50
73322;DHT22;61549;37.044;22.128;2023-03-31T03:13:34;14.90;45.20
73322;DHT22;61549;37.044;22.128;2023-03-31T03:19:05;14.80;46.20
73322;DHT22;61549;37.044;22.128;2023-03-31T03:21:29;14.70;45.90
73322;DHT22;61549;37.044;22.128;2023-03-31T03:23:55;14.50;45.20
73322;DHT22;61549;37.044;22.128;2023-03-31T03:26:22;14.50;44.40
73322;DHT22;61549;37.044;22.128;2023-03-31T03:28:51;14.50;45.40
73322;DHT22;61549;37.044;22.128;2023-03-31T03:31:18;14.50;45.60
73322;DHT22;61549;37.044;22.128;2023-03-31T03:34:04;14.40;45.40
73322;DHT22;61549;37.044;22.128;2023-03-31T03:36:31;14.50;47.00
73322;DHT22;61549;37.044;22.128;2023-03-31T03:38:58;14.50;47.40
73322;DHT22;61549;37.044;22.128;2023-03-31T03:41:24;14.50;46.80
73322;DHT22;61549;37.044;22.128;2023-03-31T03:43:50;14.40;46.70
73322;DHT22;61549;37.044;22.128;2023-03-31T03:46:16;14.30;46.30
73322;DHT22;61549;37.044;22.128;2023-03-31T03:48:42;14.30;46.50
73322;DHT22;61549;37.044;22.128;2023-03-31T03:51:07;14.30;46.80
73322;DHT22;61549;37.044;22.128;2023-03-31T03:53:33;14.30;46.30
73322;DHT22;61549;37.044;22.128;2023-03-31T03:56:00;14.30;46.40
73322;DHT22;61549;37.044;22.128;2023-03-31T03:58:26;14.20;46.50
73322;DHT22;61549;37.044;22.128;2023-03-31T04:00:51;14.20;47.00
73322;DHT22;61549;37.044;22.128;2023-03-31T04:03:17;14.20;47.50
73322;DHT22;61549;37.044;22.128;2023-03-31T04:05:43;14.10;47.40
73322;DHT22;61549;37.044;22.128;2023-03-31T04:08:09;14.10;47.80
73322;DHT22;61549;37.044;22.128;2023-03-31T04:10:36;14.20;47.60
73322;DHT22;61549;37.044;22.128;2023-03-31T04:13:02;14.10;46.30
73322;DHT22;61549;37.044;22.128;2023-03-31T04:15:28;14.10;47.10
73322;DHT22;61549;37.044;22.128;2023-03-31T04:17:57;14.10;46.60
73322;DHT22;61549;37.044;22.128;2023-03-31T04:20:23;14.10;47.30
73322;DHT22;61549;37.044;22.128;2023-03-31T04:22:52;14.10;47.80
73322;DHT22;61549;37.044;22.128;2023-03-31T04:25:19;14.00;47.40
73322;DHT22;61549;37.044;22.128;2023-03-31T04:27:48;14.10;47.20
73322;DHT22;61549;37.044;22.128;2023-03-31T04:30:26;14.10;47.60
73322;DHT22;61549;37.044;22.128;2023-03-31T04:32:58;14.00;47.40
73322;DHT22;61549;37.044;22.128;2023-03-31T04:35:26;13.90;46.80
73322;DHT22;61549;37.044;22.128;2023-03-31T04:37:53;14.00;47.60
73322;DHT22;61549;37.044;22.128;2023-03-31T04:40:26;14.00;47.20
73322;DHT22;61549;37.044;22.128;2023-03-31T04:42:52;14.00;46.50
73322;DHT22;61549;37.044;22.128;2023-03-31T04:45:17;14.10;47.00
73322;DHT22;61549;37.044;22.128;2023-03-31T04:47:43;14.10;47.70
73322;DHT22;61549;37.044;22.128;2023-03-31T04:50:09;14.10;47.70
73322;DHT22;61549;37.044;22.128;2023-03-31T04:52:36;14.10;47.10
73322;DHT22;61549;37.044;22.128;2023-03-31T04:55:03;14.10;47.20
73322;DHT22;61549;37.044;22.128;2023-03-31T04:57:29;14.10;47.70
73322;DHT22;61549;37.044;22.128;2023-03-31T04:59:55;14.10;47.40
73322;DHT22;61549;37.044;22.128;2023-03-31T05:02:21;14.10;47.10
73322;DHT22;61549;37.044;22.128;2023-03-31T05:04:51;14.10;48.10
73322;DHT22;61549;37.044;22.128;2023-03-31T05:07:17;14.10;48.30
73322;DHT22;61549;37.044;22.128;2023-03-31T05:09:43;14.20;48.10
73322;DHT22;61549;37.044;22.128;2023-03-31T05:12:09;14.30;48.60
73322;DHT22;61549;37.044;22.128;2023-03-31T05:14:35;14.40;49.30
73322;DHT22;61549;37.044;22.128;2023-03-31T05:17:01;14.50;50.30
73322;DHT22;61549;37.044;22.128;2023-03-31T05:19:27;14.60;51.10
73322;DHT22;61549;37.044;22.128;2023-03-31T05:21:54;14.60;52.00
73322;DHT22;61549;37.044;22.128;2023-03-31T05:24:20;14.70;52.60
73322;DHT22;61549;37.044;22.128;2023-03-31T05:26:46;14.80;52.60
73322;DHT22;61549;37.044;22.128;2023-03-31T05:29:17;15.00;52.40
73322;DHT22;61549;37.044;22.128;2023-03-31T05:31:43;15.10;52.70
73322;DHT22;61549;37.044;22.128;2023-03-31T05:34:10;15.20;53.00
73322;DHT22;61549;37.044;22.128;2023-03-31T05:36:36;15.20;52.20
73322;DHT22;61549;37.044;22.128;2023-03-31T05:39:03;15.30;50.40
73322;DHT22;61549;37.044;22.128;2023-03-31T05:41:29;15.30;50.20
73322;DHT22;61549;37.044;22.128;2023-03-31T05:43:55;15.40;50.50
73322;DHT22;61549;37.044;22.128;2023-03-31T05:46:21;15.50;49.20
73322;DHT22;61549;37.044;22.128;2023-03-31T05:48:46;15.50;49.00
73322;DHT22;61549;37.044;22.128;2023-03-31T05:51:12;15.70;49.50
73322;DHT22;61549;37.044;22.128;2023-03-31T05:53:40;15.80;50.90
73322;DHT22;61549;37.044;22.128;2023-03-31T05:56:06;15.80;51.90
73322;DHT22;61549;37.044;22.128;2023-03-31T05:58:36;15.90;52.50
73322;DHT22;61549;37.044;22.128;2023-03-31T06:01:11;16.00;52.30
73322;DHT22;61549;37.044;22.128;2023-03-31T06:03:39;16.00;52.50
73322;DHT22;61549;37.044;22.128;2023-03-31T06:06:09;16.10;53.10
73322;DHT22;61549;37.044;22.128;2023-03-31T06:08:35;16.20;52.40
73322;DHT22;61549;37.044;22.128;2023-03-31T06:11:11;15.90;51.90
73322;DHT22;61549;37.044;22.128;2023-03-31T06:13:38;16.10;52.80
73322;DHT22;61549;37.044;22.128;2023-03-31T06:16:04;16.20;51.80
73322;DHT22;61549;37.044;22.128;2023-03-31T06:18:32;16.30;51.80
73322;DHT22;61549;37.044;22.128;2023-03-31T06:20:59;16.50;50.30
73322;DHT22;61549;37.044;22.128;2023-03-31T06:23:25;16.60;48.90
73322;DHT22;61549;37.044;22.128;2023-03-31T06:25:52;16.30;50.70
73322;DHT22;61549;37.044;22.128;2023-03-31T06:28:19;16.40;51.70
73322;DHT22;61549;37.044;22.128;2023-03-31T06:30:45;16.40;52.80
73322;DHT22;61549;37.044;22.128;2023-03-31T06:33:11;16.40;52.90
73322;DHT22;61549;37.044;22.128;2023-03-31T06:35:39;16.70;53.00
73322;DHT22;61549;37.044;22.128;2023-03-31T06:38:05;16.90;52.60
73322;DHT22;61549;37.044;22.128;2023-03-31T06:40:32;17.30;51.10
73322;DHT22;61549;37.044;22.128;2023-03-31T06:42:58;17.50;50.60
73322;DHT22;61549;37.044;22.128;2023-03-31T06:45:24;17.70;47.60
73322;DHT22;61549;37.044;22.128;2023-03-31T06:47:50;17.70;48.00
73322;DHT22;61549;37.044;22.128;2023-03-31T06:50:16;17.70;48.50
73322;DHT22;61549;37.044;22.128;2023-03-31T06:52:42;17.90;49.10
73322;DHT22;61549;37.044;22.128;2023-03-31T06:55:10;17.90;47.10
73322;DHT22;61549;37.044;22.128;2023-03-31T06:57:37;18.10;46.80
73322;DHT22;61549;37.044;22.128;2023-03-31T07:00:04;18.20;46.80
73322;DHT22;61549;37.044;22.128;2023-03-31T07:02:32;18.40;45.40
73322;DHT22;61549;37.044;22.128;2023-03-31T07:04:57;18.70;45.90
73322;DHT22;61549;37.044;22.128;2023-03-31T07:07:30;18.70;43.50
73322;DHT22;61549;37.044;22.128;2023-03-31T07:09:57;19.00;43.50
73322;DHT22;61549;37.044;22.128;2023-03-31T07:12:23;19.00;43.10
73322;DHT22;61549;37.044;22.128;2023-03-31T07:14:49;19.10;43.70
73322;DHT22;61549;37.044;22.128;2023-03-31T07:17:15;19.30;43.90
73322;DHT22;61549;37.044;22.128;2023-03-31T07:19:42;19.50;44.10
73322;DHT22;61549;37.044;22.128;2023-03-31T07:22:13;19.70;44.00
73322;DHT22;61549;37.044;22.128;2023-03-31T07:24:40;19.90;43.60
73322;DHT22;61549;37.044;22.128;2023-03-31T07:27:06;19.90;44.20
73322;DHT22;61549;37.044;22.128;2023-03-31T07:29:31;20.10;44.30
73322;DHT22;61549;37.044;22.128;2023-03-31T07:31:57;20.20;44.30
73322;DHT22;61549;37.044;22.128;2023-03-31T07:34:23;20.30;44.80
73322;DHT22;61549;37.044;22.128;2023-03-31T07:36:49;20.30;44.30
73322;DHT22;61549;37.044;22.128;2023-03-31T07:39:16;20.40;44.90
73322;DHT22;61549;37.044;22.128;2023-03-31T07:41:41;20.40;44.50
73322;DHT22;61549;37.044;22.128;2023-03-31T07:44:07;20.40;45.00
73322;DHT22;61549;37.044;22.128;2023-03-31T07:46:39;20.40;44.40
73322;DHT22;61549;37.044;22.128;2023-03-31T07:49:05;20.10;45.20
73322;DHT22;61549;37.044;22.128;2023-03-31T07:51:32;19.90;45.10
73322;DHT22;61549;37.044;22.128;2023-03-31T07:53:58;20.10;45.20
73322;DHT22;61549;37.044;22.128;2023-03-31T07:56:24;20.30;45.70
73322;DHT22;61549;37.044;22.128;2023-03-31T07:58:50;20.40;45.40
73322;DHT22;61549;37.044;22.128;2023-03-31T08:01:19;20.40;45.10
73322;DHT22;61549;37.044;22.128;2023-03-31T08:03:46;20.60;44.60
73322;DHT22;61549;37.044;22.128;2023-03-31T08:06:23;20.60;45.00
73322;DHT22;61549;37.044;22.128;2023-03-31T08:08:50;20.60;44.10
73322;DHT22;61549;37.044;22.128;2023-03-31T08:11:16;20.50;44.40
73322;DHT22;61549;37.044;22.128;2023-03-31T08:13:42;20.40;44.70
73322;DHT22;61549;37.044;22.128;2023-03-31T08:16:08;20.40;45.30
73322;DHT22;61549;37.044;22.128;2023-03-31T08:18:34;20.20;44.90
73322;DHT22;61549;37.044;22.128;2023-03-31T08:21:00;20.40;45.20
73322;DHT22;61549;37.044;22.128;2023-03-31T08:23:26;20.50;45.10
73322;DHT22;61549;37.044;22.128;2023-03-31T08:25:52;20.60;45.10
73322;DHT22;61549;37.044;22.128;2023-03-31T08:28:17;20.50;45.70
73322;DHT22;61549;37.044;22.128;2023-03-31T08:30:43;20.30;45.70
73322;DHT22;61549;37.044;22.128;2023-03-31T08:33:09;20.40;45.20
73322;DHT22;61549;37.044;22.128;2023-03-31T08:35:38;20.70;45.60
73322;DHT22;61549;37.044;22.128;2023-03-31T08:38:04;20.60;44.70
73322;DHT22;61549;37.044;22.128;2023-03-31T08:40:31;20.80;45.30
73322;DHT22;61549;37.044;22.128;2023-03-31T08:43:24;20.80;44.20
73322;DHT22;61549;37.044;22.128;2023-03-31T08:45:53;20.60;43.00
73322;DHT22;61549;37.044;22.128;2023-03-31T08:51:16;20.70;43.20
73322;DHT22;61549;37.044;22.128;2023-03-31T08:54:08;20.60;42.20
73322;DHT22;61549;37.044;22.128;2023-03-31T08:56:39;20.40;41.80
73322;DHT22;61549;37.044;22.128;2023-03-31T09:01:57;20.50;42.10
73322;DHT22;61549;37.044;22.128;2023-03-31T09:16:07;20.60;41.40
73322;DHT22;61549;37.044;22.128;2023-03-31T09:18:36;20.80;40.60
73322;DHT22;61549;37.044;22.128;2023-03-31T09:21:10;20.90;39.50
73322;DHT22;61549;37.044;22.128;2023-03-31T09:28:58;20.90;38.20
73322;DHT22;61549;37.044;22.128;2023-03-31T09:31:26;20.70;36.50
73322;DHT22;61549;37.044;22.128;2023-03-31T09:33:57;20.80;37.00
73322;DHT22;61549;37.044;22.128;2023-03-31T09:36:24;20.90;37.90
73322;DHT22;61549;37.044;22.128;2023-03-31T09:38:50;21.10;37.80
73322;DHT22;61549;37.044;22.128;2023-03-31T09:41:16;21.10;36.30
73322;DHT22;61549;37.044;22.128;2023-03-31T09:43:44;21.10;36.30
73322;DHT22;61549;37.044;22.128;2023-03-31T09:46:32;21.20;36.70
73322;DHT22;61549;37.044;22.128;2023-03-31T09:49:03;21.20;36.10
73322;DHT22;61549;37.044;22.128;2023-03-31T09:51:35;21.30;36.40
73322;DHT22;61549;37.044;22.128;2023-03-31T09:54:18;21.40;35.40
73322;DHT22;61549;37.044;22.128;2023-03-31T09:56:50;21.50;37.60
73322;DHT22;61549;37.044;22.128;2023-03-31T09:59:29;21.70;37.50
73322;DHT22;61549;37.044;22.128;2023-03-31T10:01:58;21.90;37.90
73322;DHT22;61549;37.044;22.128;2023-03-31T10:04:29;22.10;38.10
73322;DHT22;61549;37.044;22.128;2023-03-31T10:06:59;22.00;38.50
73322;DHT22;61549;37.044;22.128;2023-03-31T10:09:28;22.10;38.10
73322;DHT22;61549;37.044;22.128;2023-03-31T10:12:19;22.20;37.10
73322;DHT22;61549;37.044;22.128;2023-03-31T10:14:51;22.20;37.00
73322;DHT22;61549;37.044;22.128;2023-03-31T10:17:23;22.30;37.10
73322;DHT22;61549;37.044;22.128;2023-03-31T10:20:10;22.20;37.10
73322;DHT22;61549;37.044;22.128;2023-03-31T10:23:16;22.00;37.70
73322;DHT22;61549;37.044;22.128;2023-03-31T10:25:43;22.10;37.70
73322;DHT22;61549;37.044;22.128;2023-03-31T10:28:14;22.10;36.50
73322;DHT22;61549;37.044;22.128;2023-03-31T10:30:47;22.10;37.10
73322;DHT22;61549;37.044;22.128;2023-03-31T10:33:18;22.20;36.90
73322;DHT22;61549;37.044;22.128;2023-03-31T10:35:58;22.30;35.80
73322;DHT22;61549;37.044;22.128;2023-03-31T10:38:41;22.40;35.90
73322;DHT22;61549;37.044;22.128;2023-03-31T10:41:22;22.50;36.40
73322;DHT22;61549;37.044;22.128;2023-03-31T10:43:54;22.40;36.60
73322;DHT22;61549;37.044;22.128;2023-03-31T10:51:55;22.80;36.80
73322;DHT22;61549;37.044;22.128;2023-03-31T10:54:26;23.00;37.10
73322;DHT22;61549;37.044;22.128;2023-03-31T10:57:04;22.90;36.60
73322;DHT22;61549;37.044;22.128;2023-03-31T11:13:21;23.50;34.90
73322;DHT22;61549;37.044;22.128;2023-03-31T11:30:18;24.50;34.20
73322;DHT22;61549;37.044;22.128;2023-03-31T11:44:02;25.10;32.70
73322;DHT22;61549;37.044;22.128;2023-03-31T11:46:48;25.20;33.60
73322;DHT22;61549;37.044;22.128;2023-03-31T11:49:19;25.30;33.80
73322;DHT22;61549;37.044;22.128;2023-03-31T11:52:05;25.40;33.60
73322;DHT22;61549;37.044;22.128;2023-03-31T11:54:52;25.40;35.00
73322;DHT22;61549;37.044;22.128;2023-03-31T11:57:36;25.50;35.00
73322;DHT22;61549;37.044;22.128;2023-03-31T12:00:31;25.60;35.60
73322;DHT22;61549;37.044;22.128;2023-03-31T12:03:20;25.70;35.60
73322;DHT22;61549;37.044;22.128;2023-03-31T12:05:56;25.80;35.60
73322;DHT22;61549;37.044;22.128;2023-03-31T12:11:40;25.90;35.40
73322;DHT22;61549;37.044;22.128;2023-03-31T12:14:20;26.00;34.40
73322;DHT22;61549;37.044;22.128;2023-03-31T12:16:51;26.00;34.70
73322;DHT22;61549;37.044;22.128;2023-03-31T12:19:45;26.00;34.70
73322;DHT22;61549;37.044;22.128;2023-03-31T12:22:35;26.10;33.90
73322;DHT22;61549;37.044;22.128;2023-03-31T12:25:03;26.20;34.60
73322;DHT22;61549;37.044;22.128;2023-03-31T12:27:40;26.20;33.70
73322;DHT22;61549;37.044;22.128;2023-03-31T12:50:17;26.10;35.30
73322;DHT22;61549;37.044;22.128;2023-03-31T12:55:56;26.00;35.90
73322;DHT22;61549;37.044;22.128;2023-03-31T13:01:22;26.20;33.50
73322;DHT22;61549;37.044;22.128;2023-03-31T13:12:06;26.20;34.20
73322;DHT22;61549;37.044;22.128;2023-03-31T13:14:41;26.20;33.60
73322;DHT22;61549;37.044;22.128;2023-03-31T13:19:54;26.30;33.10
73322;DHT22;61549;37.044;22.128;2023-03-31T13:22:32;26.20;35.30
73322;DHT22;61549;37.044;22.128;2023-03-31T13:25:38;26.30;34.30
73322;DHT22;61549;37.044;22.128;2023-03-31T13:28:48;26.30;34.70
73322;DHT22;61549;37.044;22.128;2023-03-31T13:31:13;26.40;35.40
73322;DHT22;61549;37.044;22.128;2023-03-31T13:33:43;26.40;35.00
73322;DHT22;61549;37.044;22.128;2023-03-31T13:46:58;26.00;35.10
73322;DHT22;61549;37.044;22.128;2023-03-31T13:52:57;25.90;35.20
73322;DHT22;61549;37.044;22.128;2023-03-31T13:59:00;26.00;35.50
73322;DHT22;61549;37.044;22.128;2023-03-31T14:07:21;26.00;37.00
73322;DHT22;61549;37.044;22.128;2023-03-31T14:09:52;26.00;36.20
73322;DHT22;61549;37.044;22.128;2023-03-31T14:14:54;25.90;35.70
73322;DHT22;61549;37.044;22.128;2023-03-31T14:17:28;25.80;35.90
73322;DHT22;61549;37.044;22.128;2023-03-31T14:28:49;25.40;36.50
73322;DHT22;61549;37.044;22.128;2023-03-31T14:31:34;25.40;37.30
73322;DHT22;61549;37.044;22.128;2023-03-31T14:39:50;25.30;38.00
73322;DHT22;61549;37.044;22.128;2023-03-31T14:42:31;25.30;38.00
73322;DHT22;61549;37.044;22.128;2023-03-31T14:45:03;25.20;37.70
73322;DHT22;61549;37.044;22.128;2023-03-31T14:47:29;25.20;38.10
73322;DHT22;61549;37.044;22.128;2023-03-31T14:50:16;25.10;38.30
73322;DHT22;61549;37.044;22.128;2023-03-31T14:52:49;25.10;37.50
73322;DHT22;61549;37.044;22.128;2023-03-31T14:55:20;25.10;37.60
73322;DHT22;61549;37.044;22.128;2023-03-31T14:57:47;25.10;37.40
73322;DHT22;61549;37.044;22.128;2023-03-31T15:00:23;25.00;37.00
73322;DHT22;61549;37.044;22.128;2023-03-31T15:02:49;24.90;37.00
73322;DHT22;61549;37.044;22.128;2023-03-31T15:05:30;24.80;37.40
73322;DHT22;61549;37.044;22.128;2023-03-31T15:07:58;24.60;37.40
73322;DHT22;61549;37.044;22.128;2023-03-31T15:10:37;24.40;37.50
73322;DHT22;61549;37.044;22.128;2023-03-31T15:13:16;24.30;38.10
73322;DHT22;61549;37.044;22.128;2023-03-31T15:15:43;24.20;38.70
73322;DHT22;61549;37.044;22.128;2023-03-31T15:18:13;24.10;38.90
73322;DHT22;61549;37.044;22.128;2023-03-31T15:20:41;24.00;39.40
73322;DHT22;61549;37.044;22.128;2023-03-31T15:23:26;23.90;39.60
73322;DHT22;61549;37.044;22.128;2023-03-31T15:26:06;23.80;40.00
73322;DHT22;61549;37.044;22.128;2023-03-31T15:28:50;23.70;40.20
73322;DHT22;61549;37.044;22.128;2023-03-31T15:31:17;23.60;40.20
73322;DHT22;61549;37.044;22.128;2023-03-31T15:33:43;23.40;40.40
73322;DHT22;61549;37.044;22.128;2023-03-31T15:36:17;23.40;40.60
73322;DHT22;61549;37.044;22.128;2023-03-31T15:39:06;23.20;40.60
73322;DHT22;61549;37.044;22.128;2023-03-31T15:41:32;23.10;40.90
73322;DHT22;61549;37.044;22.128;2023-03-31T15:49:51;22.90;41.60
73322;DHT22;61549;37.044;22.128;2023-03-31T15:54:55;22.70;41.90
73322;DHT22;61549;37.044;22.128;2023-03-31T15:57:30;22.70;41.90
73322;DHT22;61549;37.044;22.128;2023-03-31T15:59:57;22.60;42.20
73322;DHT22;61549;37.044;22.128;2023-03-31T16:02:28;22.50;42.50
73322;DHT22;61549;37.044;22.128;2023-03-31T16:04:59;22.50;42.30
73322;DHT22;61549;37.044;22.128;2023-03-31T16:07:36;22.40;42.40
73322;DHT22;61549;37.044;22.128;2023-03-31T16:10:22;22.30;42.60
73322;DHT22;61549;37.044;22.128;2023-03-31T16:13:16;22.30;42.70
73322;DHT22;61549;37.044;22.128;2023-03-31T16:15:49;22.30;42.50
73322;DHT22;61549;37.044;22.128;2023-03-31T16:18:30;22.20;42.80
73322;DHT22;61549;37.044;22.128;2023-03-31T16:23:56;22.10;43.30
73322;DHT22;61549;37.044;22.128;2023-03-31T16:26:24;22.00;43.30
73322;DHT22;61549;37.044;22.128;2023-03-31T16:28:53;22.00;43.40
73322;DHT22;61549;37.044;22.128;2023-03-31T16:31:42;21.90;43.40
73322;DHT22;61549;37.044;22.128;2023-03-31T16:34:10;21.90;43.40
73322;DHT22;61549;37.044;22.128;2023-03-31T16:36:36;21.90;43.40
73322;DHT22;61549;37.044;22.128;2023-03-31T16:39:03;21.80;43.30
73322;DHT22;61549;37.044;22.128;2023-03-31T16:41:34;21.80;43.10
73322;DHT22;61549;37.044;22.128;2023-03-31T16:44:02;21.70;43.80
73322;DHT22;61549;37.044;22.128;2023-03-31T16:46:28;21.70;45.50
73322;DHT22;61549;37.044;22.128;2023-03-31T16:48:54;21.70;46.20
73322;DHT22;61549;37.044;22.128;2023-03-31T16:51:20;21.70;47.00
73322;DHT22;61549;37.044;22.128;2023-03-31T16:53:46;21.60;47.30
73322;DHT22;61549;37.044;22.128;2023-03-31T16:56:13;21.60;47.50
73322;DHT22;61549;37.044;22.128;2023-03-31T16:58:39;21.40;47.60
73322;DHT22;61549;37.044;22.128;2023-03-31T17:01:06;21.40;47.70
73322;DHT22;61549;37.044;22.128;2023-03-31T17:03:47;21.40;47.90
73322;DHT22;61549;37.044;22.128;2023-03-31T17:06:13;21.50;48.10
73322;DHT22;61549;37.044;22.128;2023-03-31T17:08:39;21.40;48.10
73322;DHT22;61549;37.044;22.128;2023-03-31T17:11:12;21.40;48.30
73322;DHT22;61549;37.044;22.128;2023-03-31T17:13:39;21.30;48.50
73322;DHT22;61549;37.044;22.128;2023-03-31T17:16:06;21.30;48.70
73322;DHT22;61549;37.044;22.128;2023-03-31T17:18:32;21.20;48.80
73322;DHT22;61549;37.044;22.128;2023-03-31T17:21:09;21.20;49.00
73322;DHT22;61549;37.044;22.128;2023-03-31T17:23:36;21.20;49.00
73322;DHT22;61549;37.044;22.128;2023-03-31T17:26:03;21.20;49.30
73322;DHT22;61549;37.044;22.128;2023-03-31T17:28:30;21.10;49.40
73322;DHT22;61549;37.044;22.128;2023-03-31T17:30:56;21.10;49.60
73322;DHT22;61549;37.044;22.128;2023-03-31T17:33:23;21.00;50.00
73322;DHT22;61549;37.044;22.128;2023-03-31T17:35:49;21.00;50.10
73322;DHT22;61549;37.044;22.128;2023-03-31T17:38:16;20.90;50.10
73322;DHT22;61549;37.044;22.128;2023-03-31T17:40:44;20.90;50.20
73322;DHT22;61549;37.044;22.128;2023-03-31T17:43:10;20.90;50.30
73322;DHT22;61549;37.044;22.128;2023-03-31T17:45:36;20.90;50.50
73322;DHT22;61549;37.044;22.128;2023-03-31T17:48:02;20.90;50.70
73322;DHT22;61549;37.044;22.128;2023-03-31T17:50:30;20.80;50.60
73322;DHT22;61549;37.044;22.128;2023-03-31T17:52:57;20.80;50.40
73322;DHT22;61549;37.044;22.128;2023-03-31T17:55:42;20.70;49.90
73322;DHT22;61549;37.044;22.128;2023-03-31T17:58:20;20.70;49.50
73322;DHT22;61549;37.044;22.128;2023-03-31T18:00:47;20.60;49.20
73322;DHT22;61549;37.044;22.128;2023-03-31T18:03:23;20.50;49.50
73322;DHT22;61549;37.044;22.128;2023-03-31T18:05:49;20.50;49.60
73322;DHT22;61549;37.044;22.128;2023-03-31T18:08:23;20.40;50.00
73322;DHT22;61549;37.044;22.128;2023-03-31T18:10:49;20.30;50.40
73322;DHT22;61549;37.044;22.128;2023-03-31T18:13:16;20.20;50.70
73322;DHT22;61549;37.044;22.128;2023-03-31T18:15:46;20.20;51.20
73322;DHT22;61549;37.044;22.128;2023-03-31T18:18:13;20.10;51.60
73322;DHT22;61549;37.044;22.128;2023-03-31T18:20:40;20.10;51.70
73322;DHT22;61549;37.044;22.128;2023-03-31T18:23:19;20.10;51.40
73322;DHT22;61549;37.044;22.128;2023-03-31T18:25:47;20.10;51.30
73322;DHT22;61549;37.044;22.128;2023-03-31T18:28:16;20.10;51.10
73322;DHT22;61549;37.044;22.128;2023-03-31T18:30:42;20.00;50.90
73322;DHT22;61549;37.044;22.128;2023-03-31T18:33:09;19.90;51.00
73322;DHT22;61549;37.044;22.128;2023-03-31T18:35:44;20.00;51.20
73322;DHT22;61549;37.044;22.128;2023-03-31T18:38:11;20.00;51.00
73322;DHT22;61549;37.044;22.128;2023-03-31T18:40:37;19.80;51.00
73322;DHT22;61549;37.044;22.128;2023-03-31T18:43:04;19.60;51.50
73322;DHT22;61549;37.044;22.128;2023-03-31T18:45:30;19.50;51.70
73322;DHT22;61549;37.044;22.128;2023-03-31T18:48:21;19.50;52.10
73322;DHT22;61549;37.044;22.128;2023-03-31T18:50:51;19.40;52.00
73322;DHT22;61549;37.044;22.128;2023-03-31T18:53:20;19.30;52.20
73322;DHT22;61549;37.044;22.128;2023-03-31T18:55:53;19.30;51.40
73322;DHT22;61549;37.044;22.128;2023-03-31T18:58:30;19.20;51.30
73322;DHT22;61549;37.044;22.128;2023-03-31T19:00:57;19.30;51.60
73322;DHT22;61549;37.044;22.128;2023-03-31T19:03:23;19.20;51.70
73322;DHT22;61549;37.044;22.128;2023-03-31T19:05:51;19.20;51.80
73322;DHT22;61549;37.044;22.128;2023-03-31T19:08:17;19.20;51.40
73322;DHT22;61549;37.044;22.128;2023-03-31T19:10:43;19.20;51.60
73322;DHT22;61549;37.044;22.128;2023-03-31T19:13:13;19.20;51.80